Time;durP1;ratioP1;P1;durP2;ratioP2;P2;SDS_P1;SDS_P2;PMS_P1;PMS_P2;Temp;Humidity;BMP_temperature;BMP_pressure;BME280_temperature;BME280_humidity;BME280_pressure;Samples;Min_cycle;Max_cycle;Signal;HPM_P1;HPM_P2
2023/04/18 00:00:39;;;;;;;12.07;8.43;;;7.70;99.90;;;;;;5035414;28;20745;-79
2023/04/18 00:03:04;;;;;;;13.63;8.05;;;7.80;99.90;;;;;;5016393;28;20049;-78
2023/04/18 00:05:30;;;;;;;14.85;8.57;;;7.80;99.90;;;;;;5016092;28;20037;-78
2023/04/18 00:07:55;;;;;;;16.08;8.50;;;7.60;99.90;;;;;;5002586;28;20366;-79
2023/04/18 00:10:21;;;;;;;14.18;9.43;;;7.50;99.90;;;;;;5033147;28;20112;-79
2023/04/18 00:12:46;;;;;;;11.80;8.50;;;7.50;99.90;;;;;;5015112;28;20727;-79
2023/04/18 00:15:12;;;;;;;13.93;8.63;;;7.40;99.90;;;;;;5022144;28;20039;-79
2023/04/18 00:17:38;;;;;;;14.68;9.68;;;7.40;99.90;;;;;;5023588;28;20037;-78
2023/04/18 00:20:09;;;;;;;13.13;8.57;;;7.30;99.90;;;;;;5014119;28;20077;-78
2023/04/18 00:22:35;;;;;;;15.52;8.82;;;7.20;99.90;;;;;;5007188;28;20493;-79
2023/04/18 00:25:00;;;;;;;17.63;10.40;;;7.20;99.90;;;;;;5030858;28;20032;-79
2023/04/18 00:27:26;;;;;;;12.77;8.35;;;7.00;99.90;;;;;;5023685;28;20026;-79
2023/04/18 00:29:51;;;;;;;14.82;8.90;;;7.10;99.90;;;;;;5022819;28;20030;-79
2023/04/18 00:32:18;;;;;;;13.50;8.57;;;7.20;99.90;;;;;;5033416;28;20069;-79
2023/04/18 00:34:44;;;;;;;13.82;8.98;;;7.20;99.90;;;;;;5016094;28;20153;-78
2023/04/18 00:37:09;;;;;;;12.65;9.07;;;7.10;99.90;;;;;;5022820;28;20068;-79
2023/04/18 00:39:35;;;;;;;14.63;9.32;;;7.20;99.90;;;;;;5022169;28;20117;-79
2023/04/18 00:42:02;;;;;;;12.00;9.02;;;7.00;99.90;;;;;;5020757;28;20482;-79
2023/04/18 00:44:27;;;;;;;15.75;10.38;;;6.90;99.90;;;;;;5015426;28;20032;-78
2023/04/18 00:46:53;;;;;;;11.77;8.80;;;6.80;99.90;;;;;;5015033;28;20118;-79
2023/04/18 00:49:19;;;;;;;14.15;9.43;;;7.00;99.90;;;;;;5013801;28;20044;-78
2023/04/18 00:51:44;;;;;;;15.65;9.05;;;6.90;99.90;;;;;;5028630;28;20032;-79
2023/04/18 00:54:11;;;;;;;17.75;9.27;;;6.60;99.90;;;;;;5036238;28;20081;-78
2023/04/18 00:56:37;;;;;;;13.18;8.70;;;6.70;99.90;;;;;;5028784;28;20045;-79
2023/04/18 00:59:04;;;;;;;12.80;9.73;;;6.60;99.90;;;;;;5002408;28;20033;-79
2023/04/18 01:01:30;;;;;;;15.15;9.02;;;6.60;99.90;;;;;;5012370;28;20049;-79
2023/04/18 01:03:55;;;;;;;12.18;9.07;;;6.50;99.90;;;;;;5030796;28;20022;-79
2023/04/18 01:06:22;;;;;;;14.20;9.20;;;6.40;99.90;;;;;;5012090;28;20044;-79
2023/04/18 01:08:48;;;;;;;12.80;8.77;;;6.40;99.90;;;;;;5005844;28;20040;-79
2023/04/18 01:11:13;;;;;;;12.68;8.70;;;6.40;99.90;;;;;;5005005;28;20034;-79
2023/04/18 01:13:39;;;;;;;13.05;8.95;;;6.40;99.90;;;;;;4998961;28;20447;-79
2023/04/18 01:16:04;;;;;;;14.35;9.13;;;6.40;99.90;;;;;;5020729;28;20536;-79
2023/04/18 01:18:30;;;;;;;13.55;10.05;;;6.30;99.90;;;;;;5031159;28;20048;-79
2023/04/18 01:20:58;;;;;;;13.48;9.02;;;6.30;99.90;;;;;;5016647;28;20508;-79
2023/04/18 01:23:24;;;;;;;14.00;8.60;;;6.30;99.90;;;;;;4999561;28;20030;-79
2023/04/18 01:25:50;;;;;;;10.65;8.45;;;6.30;99.90;;;;;;5005366;28;20034;-79
2023/04/18 01:28:17;;;;;;;16.00;9.38;;;6.30;99.90;;;;;;5022909;28;20033;-79
2023/04/18 01:30:43;;;;;;;12.40;9.13;;;6.20;99.90;;;;;;5015681;28;20029;-79
2023/04/18 01:33:08;;;;;;;16.40;10.40;;;6.10;99.90;;;;;;5016660;28;20033;-79
2023/04/18 01:35:34;;;;;;;14.70;9.48;;;6.00;99.90;;;;;;5011394;28;20025;-79
2023/04/18 01:38:00;;;;;;;14.50;9.15;;;6.00;99.90;;;;;;5014621;28;20034;-79
2023/04/18 01:40:25;;;;;;;13.20;9.55;;;5.80;99.90;;;;;;5015761;28;20038;-78
2023/04/18 01:42:51;;;;;;;13.27;9.00;;;5.90;99.90;;;;;;5017956;28;20065;-79
2023/04/18 01:45:17;;;;;;;11.73;8.80;;;5.90;99.90;;;;;;5014676;28;20052;-78
2023/04/18 01:47:43;;;;;;;12.57;8.73;;;5.90;99.90;;;;;;5021923;28;20441;-79
2023/04/18 01:50:09;;;;;;;12.18;8.02;;;5.80;99.90;;;;;;5000038;28;20030;-81
2023/04/18 01:52:35;;;;;;;12.23;8.50;;;5.80;99.90;;;;;;5018666;28;20726;-80
2023/04/18 01:55:03;;;;;;;13.63;8.32;;;5.80;99.90;;;;;;5016037;28;20026;-80
2023/04/18 01:57:29;;;;;;;10.82;8.32;;;5.70;99.90;;;;;;5002649;28;20038;-80
2023/04/18 01:59:55;;;;;;;10.63;8.27;;;5.80;99.90;;;;;;5001774;28;20034;-80
2023/04/18 02:02:20;;;;;;;10.50;8.25;;;5.70;99.90;;;;;;5014403;28;20393;-80
2023/04/18 02:04:46;;;;;;;12.63;8.95;;;5.70;99.90;;;;;;4999518;28;20112;-80
2023/04/18 02:07:11;;;;;;;15.63;9.02;;;5.60;99.90;;;;;;5006888;28;20033;-80
2023/04/18 02:09:37;;;;;;;10.30;7.82;;;5.60;99.90;;;;;;5030675;28;20032;-80
2023/04/18 02:12:02;;;;;;;13.52;9.02;;;5.70;99.90;;;;;;5030681;28;20044;-80
2023/04/18 02:14:34;;;;;;;12.55;9.02;;;5.70;99.90;;;;;;5014125;28;20022;-79
2023/04/18 02:17:00;;;;;;;13.63;8.65;;;5.70;99.90;;;;;;5006196;28;20037;-79
2023/04/18 02:19:27;;;;;;;13.18;8.95;;;5.60;99.90;;;;;;4997326;28;20033;-80
2023/04/18 02:21:52;;;;;;;13.68;7.88;;;5.60;99.90;;;;;;5017260;28;20034;-79
2023/04/18 02:24:18;;;;;;;10.40;8.02;;;5.60;99.90;;;;;;5005029;28;20385;-77
2023/04/18 02:26:43;;;;;;;10.50;7.50;;;5.60;99.90;;;;;;5029257;28;20034;-77
2023/04/18 02:29:09;;;;;;;9.95;7.15;;;5.40;99.90;;;;;;5030100;28;20022;-77
2023/04/18 02:31:38;;;;;;;12.15;7.88;;;5.40;99.90;;;;;;5013292;28;20030;-77
2023/04/18 02:34:04;;;;;;;9.90;7.20;;;5.50;99.90;;;;;;5010535;28;20044;-75
2023/04/18 02:36:29;;;;;;;10.00;7.38;;;5.60;99.90;;;;;;5018699;28;20129;-77
2023/04/18 02:38:55;;;;;;;10.35;7.57;;;5.40;99.90;;;;;;5015054;28;20033;-77
2023/04/18 02:41:21;;;;;;;10.90;7.57;;;5.40;99.90;;;;;;5002372;28;20112;-78
2023/04/18 02:43:46;;;;;;;9.93;7.03;;;5.30;99.90;;;;;;5002180;28;20248;-77
2023/04/18 02:46:12;;;;;;;13.13;7.43;;;5.40;99.90;;;;;;5023220;28;20033;-77
2023/04/18 02:48:37;;;;;;;9.25;6.90;;;5.40;99.90;;;;;;5004422;28;20038;-77
2023/04/18 02:51:04;;;;;;;9.38;6.90;;;5.50;99.90;;;;;;5001977;28;20417;-77
2023/04/18 02:53:29;;;;;;;8.82;7.13;;;5.40;99.90;;;;;;5015488;28;20505;-77
2023/04/18 02:55:55;;;;;;;12.25;7.22;;;5.30;99.90;;;;;;5004721;28;20037;-77
2023/04/18 02:58:20;;;;;;;11.30;7.75;;;5.20;99.90;;;;;;5006839;28;20030;-77
2023/04/18 03:00:46;;;;;;;8.77;6.70;;;5.30;99.90;;;;;;5016300;28;20034;-77
2023/04/18 03:03:11;;;;;;;8.27;6.70;;;5.40;99.90;;;;;;5015736;28;20124;-77
2023/04/18 03:05:38;;;;;;;9.43;7.07;;;5.30;99.90;;;;;;5016688;28;20076;-77
2023/04/18 03:08:04;;;;;;;9.05;7.32;;;5.30;99.90;;;;;;5017695;28;20029;-77
2023/04/18 03:10:30;;;;;;;10.07;6.93;;;5.20;99.90;;;;;;5014853;28;20073;-77
2023/04/18 03:12:55;;;;;;;9.18;6.90;;;5.20;99.90;;;;;;5014090;28;20040;-77
2023/04/18 03:15:21;;;;;;;9.50;7.05;;;5.20;99.90;;;;;;5017856;28;20029;-78
2023/04/18 03:17:47;;;;;;;12.18;7.90;;;5.10;99.90;;;;;;5006139;28;20037;-77
2023/04/18 03:20:12;;;;;;;12.90;7.18;;;5.00;99.90;;;;;;5000160;28;20029;-77
2023/04/18 03:22:38;;;;;;;8.60;6.60;;;5.00;99.90;;;;;;5016969;28;20052;-77
2023/04/18 03:25:04;;;;;;;10.80;7.00;;;5.10;99.90;;;;;;5021906;28;20034;-77
2023/04/18 03:27:29;;;;;;;13.63;7.65;;;5.00;99.90;;;;;;5016909;28;20041;-77
2023/04/18 03:29:55;;;;;;;10.10;7.85;;;4.90;99.90;;;;;;5031743;28;20030;-77
2023/04/18 03:32:21;;;;;;;12.00;7.78;;;4.90;99.90;;;;;;5035458;28;20501;-77
2023/04/18 03:34:47;;;;;;;10.90;7.95;;;4.80;99.90;;;;;;5018704;28;20441;-77
2023/04/18 03:37:12;;;;;;;10.85;8.30;;;4.70;99.90;;;;;;5023957;28;20033;-77
2023/04/18 03:39:38;;;;;;;10.00;8.23;;;4.80;99.90;;;;;;5016206;28;20529;-77
2023/04/18 03:42:04;;;;;;;8.88;7.03;;;4.70;99.90;;;;;;5025726;28;20026;-77
2023/04/18 03:44:30;;;;;;;10.55;7.32;;;4.80;99.90;;;;;;5011433;28;20034;-77
2023/04/18 03:46:56;;;;;;;10.32;6.97;;;4.80;99.90;;;;;;5016110;28;20033;-77
2023/04/18 03:49:21;;;;;;;10.60;7.32;;;4.80;99.90;;;;;;5030053;28;20397;-77
2023/04/18 03:51:47;;;;;;;11.35;8.48;;;4.70;99.90;;;;;;5002438;28;20040;-77
2023/04/18 03:54:13;;;;;;;9.93;7.85;;;4.60;99.90;;;;;;5026184;28;20041;-77
2023/04/18 03:56:40;;;;;;;10.93;7.75;;;4.60;99.90;;;;;;5012345;28;20440;-77
2023/04/18 03:59:05;;;;;;;9.43;7.13;;;4.70;99.90;;;;;;5019960;28;20055;-78
2023/04/18 04:01:31;;;;;;;15.32;8.27;;;4.80;99.90;;;;;;4998347;28;20126;-77
2023/04/18 04:03:57;;;;;;;10.25;7.82;;;4.70;99.90;;;;;;5005200;28;20025;-77
2023/04/18 04:06:22;;;;;;;10.23;7.47;;;4.60;99.90;;;;;;5002411;28;20033;-77
2023/04/18 04:08:48;;;;;;;11.80;7.70;;;4.70;99.90;;;;;;5031952;28;20033;-78
2023/04/18 04:11:13;;;;;;;11.27;8.30;;;4.80;99.90;;;;;;5007576;28;20160;-77
2023/04/18 04:13:39;;;;;;;10.65;9.10;;;4.80;99.90;;;;;;5030016;28;20073;-77
2023/04/18 04:16:05;;;;;;;12.98;9.32;;;4.80;99.90;;;;;;5024091;28;20037;-77
2023/04/18 04:18:31;;;;;;;11.30;8.70;;;4.70;99.90;;;;;;5016416;28;20045;-77
2023/04/18 04:20:57;;;;;;;11.68;8.95;;;4.70;99.90;;;;;;5013329;28;20030;-77
2023/04/18 04:23:24;;;;;;;15.52;10.23;;;4.70;99.90;;;;;;5008300;28;20084;-77
2023/04/18 04:25:51;;;;;;;11.38;8.55;;;4.70;99.90;;;;;;4998308;28;20044;-78
2023/04/18 04:28:18;;;;;;;12.40;8.75;;;4.90;99.90;;;;;;4993009;28;20037;-77
2023/04/18 04:30:43;;;;;;;10.77;8.40;;;5.00;99.90;;;;;;5011880;28;20041;-78
2023/04/18 04:33:09;;;;;;;13.48;10.00;;;4.90;99.90;;;;;;5003118;28;20038;-78
2023/04/18 04:35:35;;;;;;;12.35;9.90;;;5.00;99.90;;;;;;5004751;28;20486;-78
2023/04/18 04:38:01;;;;;;;14.68;9.63;;;5.10;99.90;;;;;;5001799;28;20518;-78
2023/04/18 04:40:26;;;;;;;14.77;9.95;;;5.10;99.90;;;;;;5030066;28;20025;-78
2023/04/18 04:42:53;;;;;;;13.52;9.40;;;5.20;99.90;;;;;;4996975;28;20026;-78
2023/04/18 04:45:19;;;;;;;13.23;9.45;;;5.30;99.90;;;;;;5005868;28;20269;-78
2023/04/18 04:47:44;;;;;;;12.23;9.48;;;5.30;99.90;;;;;;5002662;28;20041;-78
2023/04/18 04:50:14;;;;;;;12.82;9.85;;;5.40;99.90;;;;;;4997559;28;20037;-78
2023/04/18 04:52:40;;;;;;;13.02;9.80;;;5.50;99.90;;;;;;5017176;28;20034;-78
2023/04/18 04:55:06;;;;;;;15.85;11.50;;;5.50;99.90;;;;;;5001975;28;20506;-78
2023/04/18 04:57:31;;;;;;;14.52;10.68;;;5.60;99.90;;;;;;5017817;28;20045;-78
2023/04/18 04:59:57;;;;;;;14.35;10.95;;;5.60;99.90;;;;;;4996538;28;20049;-78
2023/04/18 05:02:22;;;;;;;15.52;11.45;;;5.60;99.90;;;;;;5001024;28;20049;-78
2023/04/18 05:04:48;;;;;;;16.92;12.63;;;5.70;99.90;;;;;;5030170;28;20109;-78
2023/04/18 05:07:14;;;;;;;13.70;10.55;;;5.80;99.90;;;;;;5005640;28;20029;-78
2023/04/18 05:09:40;;;;;;;13.98;9.63;;;5.80;99.90;;;;;;5016752;28;20057;-78
2023/04/18 05:12:05;;;;;;;16.92;12.25;;;5.80;99.90;;;;;;5016380;28;20121;-77
2023/04/18 05:14:31;;;;;;;14.65;10.95;;;5.90;99.90;;;;;;4997060;28;20061;-77
2023/04/18 05:16:56;;;;;;;15.52;10.70;;;5.90;99.90;;;;;;5001875;28;20061;-78
2023/04/18 05:19:22;;;;;;;15.48;10.82;;;6.10;99.90;;;;;;4999034;28;20091;-77
2023/04/18 05:21:48;;;;;;;13.75;11.07;;;6.10;99.90;;;;;;5014371;28;20087;-78
2023/04/18 05:24:13;;;;;;;13.80;10.65;;;6.20;99.90;;;;;;5011508;28;20030;-78
2023/04/18 05:26:39;;;;;;;13.43;10.63;;;6.30;99.90;;;;;;5029648;28;20057;-78
2023/04/18 05:29:04;;;;;;;14.07;10.93;;;6.30;99.90;;;;;;5020131;28;20026;-78
2023/04/18 05:31:30;;;;;;;16.70;10.85;;;6.30;99.90;;;;;;5033127;28;20478;-77
2023/04/18 05:33:55;;;;;;;14.27;10.45;;;6.40;99.90;;;;;;5015342;28;20057;-78
2023/04/18 05:36:21;;;;;;;14.43;10.85;;;6.50;99.90;;;;;;5012143;28;20033;-77
2023/04/18 05:38:47;;;;;;;13.85;9.23;;;6.60;99.90;;;;;;5012669;28;20040;-77
2023/04/18 05:41:12;;;;;;;14.48;10.60;;;6.70;99.90;;;;;;5003675;28;20033;-77
2023/04/18 05:43:38;;;;;;;13.65;10.18;;;6.80;99.90;;;;;;5018673;28;20084;-77
2023/04/18 05:46:03;;;;;;;18.23;10.80;;;6.80;99.90;;;;;;5014628;28;20041;-77
2023/04/18 05:48:29;;;;;;;11.68;9.25;;;7.00;99.90;;;;;;5016968;28;20681;-78
2023/04/18 05:50:55;;;;;;;14.70;10.85;;;7.10;99.90;;;;;;5003408;28;20084;-78
2023/04/18 05:53:21;;;;;;;15.98;10.68;;;7.20;99.90;;;;;;4996964;28;20049;-78
2023/04/18 05:55:47;;;;;;;14.63;9.27;;;7.30;99.90;;;;;;4999963;28;20059;-77
2023/04/18 05:58:13;;;;;;;13.55;11.07;;;7.50;99.90;;;;;;5004511;28;20065;-78
2023/04/18 06:00:40;;;;;;;13.43;10.55;;;7.60;99.90;;;;;;5031026;28;20525;-78
2023/04/18 06:03:05;;;;;;;15.02;10.98;;;7.60;99.90;;;;;;5015561;28;20037;-78
2023/04/18 06:05:31;;;;;;;14.00;10.52;;;7.70;99.90;;;;;;5021065;28;20719;-78
2023/04/18 06:07:56;;;;;;;15.32;11.10;;;7.80;99.90;;;;;;5015919;28;20026;-78
2023/04/18 06:10:22;;;;;;;13.65;11.43;;;7.90;99.90;;;;;;5014697;28;20064;-79
2023/04/18 06:12:48;;;;;;;18.08;11.18;;;8.00;99.90;;;;;;5010985;28;20041;-78
2023/04/18 06:15:13;;;;;;;13.30;10.45;;;8.10;99.90;;;;;;4998897;28;20029;-78
2023/04/18 06:17:39;;;;;;;16.48;11.25;;;8.20;99.90;;;;;;5020578;28;20026;-77
2023/04/18 06:20:05;;;;;;;13.57;10.93;;;8.20;99.90;;;;;;5000202;28;20037;-77
2023/04/18 06:22:32;;;;;;;14.52;11.65;;;8.20;99.90;;;;;;5013722;28;20041;-77
2023/04/18 06:24:58;;;;;;;14.70;10.43;;;8.20;99.90;;;;;;5011796;28;20018;-77
2023/04/18 06:27:25;;;;;;;13.88;10.93;;;8.10;99.90;;;;;;5000525;28;20033;-77
2023/04/18 06:29:51;;;;;;;13.73;10.02;;;8.00;99.90;;;;;;5021686;28;20030;-77
2023/04/18 06:32:16;;;;;;;16.13;10.80;;;8.10;99.90;;;;;;5029635;28;20934;-77
2023/04/18 06:34:43;;;;;;;12.38;10.13;;;8.10;99.90;;;;;;5020733;28;20104;-77
2023/04/18 06:37:09;;;;;;;14.48;11.35;;;8.10;99.90;;;;;;5012089;28;20645;-77
2023/04/18 06:39:35;;;;;;;15.02;10.07;;;8.10;99.90;;;;;;4994091;28;20023;-77
2023/04/18 06:42:01;;;;;;;14.93;9.95;;;8.20;99.90;;;;;;5028885;28;20026;-77
2023/04/18 06:44:26;;;;;;;15.90;10.68;;;8.20;99.90;;;;;;5030174;28;20034;-77
2023/04/18 06:46:52;;;;;;;17.92;10.77;;;8.30;99.90;;;;;;5008968;28;20033;-78
2023/04/18 06:49:18;;;;;;;12.63;10.15;;;8.40;99.90;;;;;;4997780;28;20033;-77
2023/04/18 06:51:43;;;;;;;14.45;10.18;;;8.40;99.90;;;;;;5001166;28;20029;-77
2023/04/18 06:54:09;;;;;;;13.95;10.23;;;8.60;99.90;;;;;;5019026;28;20057;-76
2023/04/18 06:56:35;;;;;;;14.80;10.48;;;8.60;99.90;;;;;;5001402;28;20042;-77
2023/04/18 06:59:00;;;;;;;16.77;10.93;;;8.70;99.90;;;;;;5004362;28;20037;-77
2023/04/18 07:01:26;;;;;;;16.60;10.45;;;8.80;99.90;;;;;;5015760;28;20030;-77
2023/04/18 07:03:52;;;;;;;15.65;10.73;;;8.80;99.90;;;;;;5002436;28;20232;-77
2023/04/18 07:06:17;;;;;;;14.68;10.40;;;8.90;99.90;;;;;;4998542;28;20029;-78
2023/04/18 07:08:43;;;;;;;14.45;10.20;;;8.90;99.90;;;;;;5020238;28;20046;-77
2023/04/18 07:11:09;;;;;;;17.52;11.35;;;9.00;99.90;;;;;;5013582;28;20044;-77
2023/04/18 07:13:35;;;;;;;12.93;9.70;;;9.10;99.90;;;;;;5017076;28;20033;-77
2023/04/18 07:16:00;;;;;;;12.90;9.23;;;9.20;99.90;;;;;;5025130;28;20026;-77
2023/04/18 07:18:27;;;;;;;16.23;10.20;;;9.20;99.90;;;;;;5014338;28;20107;-77
2023/04/18 07:20:53;;;;;;;18.65;10.30;;;9.30;99.90;;;;;;5016656;28;20029;-77
2023/04/18 07:23:18;;;;;;;14.88;10.73;;;9.40;99.90;;;;;;5011961;28;20151;-77
2023/04/18 07:25:44;;;;;;;17.02;11.50;;;9.50;99.90;;;;;;5020252;28;20130;-77
2023/04/18 07:28:10;;;;;;;15.15;11.45;;;9.60;99.90;;;;;;5015867;28;20248;-77
2023/04/18 07:30:35;;;;;;;16.83;11.48;;;9.60;99.90;;;;;;5013193;28;20030;-77
2023/04/18 07:33:01;;;;;;;13.85;10.85;;;9.70;99.90;;;;;;5002291;28;20057;-77
2023/04/18 07:35:26;;;;;;;15.20;12.05;;;9.70;99.90;;;;;;5012492;28;20121;-77
2023/04/18 07:37:52;;;;;;;15.70;11.10;;;9.80;99.90;;;;;;5014451;28;20454;-77
2023/04/18 07:40:18;;;;;;;15.82;10.57;;;9.70;99.90;;;;;;5021414;28;20360;-77
2023/04/18 07:42:43;;;;;;;15.00;11.65;;;9.70;99.90;;;;;;5015639;28;20349;-77
2023/04/18 07:45:09;;;;;;;16.38;11.32;;;9.80;99.90;;;;;;5015818;28;20030;-77
2023/04/18 07:47:35;;;;;;;16.45;11.82;;;9.80;99.90;;;;;;5028807;28;20030;-77
2023/04/18 07:50:01;;;;;;;18.00;11.18;;;9.80;99.90;;;;;;5015646;28;20071;-77
2023/04/18 07:52:27;;;;;;;16.65;10.90;;;9.90;99.90;;;;;;5000368;28;20109;-77
2023/04/18 07:54:52;;;;;;;14.73;11.05;;;9.90;99.90;;;;;;5000762;28;20036;-77
2023/04/18 07:57:18;;;;;;;16.30;12.27;;;9.90;99.90;;;;;;5006416;28;20015;-76
2023/04/18 07:59:43;;;;;;;18.40;12.60;;;9.90;99.90;;;;;;5001495;28;20045;-76
2023/04/18 08:02:09;;;;;;;17.38;12.60;;;10.00;99.90;;;;;;4999386;28;20065;-76
2023/04/18 08:04:35;;;;;;;15.45;10.90;;;10.00;99.90;;;;;;4997689;28;20025;-77
2023/04/18 08:07:01;;;;;;;17.95;13.15;;;10.00;99.90;;;;;;5005590;28;20022;-76
2023/04/18 08:09:26;;;;;;;18.52;12.10;;;10.10;99.90;;;;;;5019390;28;20053;-76
2023/04/18 08:11:54;;;;;;;17.30;12.13;;;10.20;99.90;;;;;;5016520;28;20038;-77
2023/04/18 08:14:19;;;;;;;16.73;12.05;;;10.30;99.90;;;;;;5002654;28;20041;-76
2023/04/18 08:16:45;;;;;;;18.98;12.50;;;10.40;99.90;;;;;;5003352;28;20111;-76
2023/04/18 08:19:10;;;;;;;20.60;12.55;;;10.70;99.90;;;;;;5031156;28;20057;-76
2023/04/18 08:21:36;;;;;;;17.00;12.75;;;10.80;99.90;;;;;;5020826;28;20041;-77
2023/04/18 08:24:02;;;;;;;13.98;9.60;;;10.90;99.90;;;;;;5011490;28;20080;-76
2023/04/18 08:26:27;;;;;;;18.70;11.40;;;10.90;99.90;;;;;;5003430;28;20026;-77
2023/04/18 08:28:53;;;;;;;18.77;11.57;;;11.00;99.90;;;;;;5022065;28;20489;-77
2023/04/18 08:31:18;;;;;;;17.58;12.40;;;11.00;99.90;;;;;;5014170;28;20482;-77
2023/04/18 08:33:44;;;;;;;17.45;12.27;;;11.00;99.90;;;;;;5028394;28;20037;-77
2023/04/18 08:36:10;;;;;;;18.17;13.30;;;11.10;99.90;;;;;;5010483;28;20041;-77
2023/04/18 08:38:36;;;;;;;22.25;11.63;;;11.10;99.90;;;;;;5012993;28;20034;-77
2023/04/18 08:41:01;;;;;;;18.17;11.23;;;11.00;99.90;;;;;;5003454;28;20456;-77
2023/04/18 08:43:29;;;;;;;15.32;10.63;;;11.00;99.90;;;;;;5000905;28;20061;-77
2023/04/18 08:45:58;;;;;;;16.55;11.23;;;11.00;99.90;;;;;;5003632;28;20477;-77
2023/04/18 08:48:23;;;;;;;14.30;10.70;;;11.10;99.90;;;;;;5005044;28;20029;-77
2023/04/18 08:50:50;;;;;;;14.13;11.13;;;11.00;99.90;;;;;;5016701;28;20046;-75
2023/04/18 08:53:16;;;;;;;14.90;10.68;;;11.10;99.90;;;;;;4998407;28;20149;-77
2023/04/18 08:55:43;;;;;;;15.77;11.30;;;11.10;99.90;;;;;;5003682;28;20084;-77
2023/04/18 08:58:11;;;;;;;14.48;10.27;;;11.00;99.90;;;;;;5020210;28;20116;-77
2023/04/18 09:00:36;;;;;;;16.75;11.18;;;10.90;99.90;;;;;;5014272;28;20033;-77
2023/04/18 09:03:02;;;;;;;15.07;11.10;;;10.90;99.90;;;;;;5017152;28;20033;-77
2023/04/18 09:05:28;;;;;;;15.60;10.93;;;11.00;99.90;;;;;;5012037;28;20120;-77
2023/04/18 09:07:54;;;;;;;18.65;10.45;;;10.90;99.90;;;;;;5016480;28;20025;-77
2023/04/18 09:10:39;;;;;;;13.68;9.10;;;11.00;99.90;;;;;;4997143;28;20149;-77
2023/04/18 09:13:06;;;;;;;16.30;10.50;;;11.00;99.90;;;;;;5016279;28;20048;-77
2023/04/18 09:15:33;;;;;;;15.30;10.43;;;11.00;99.90;;;;;;5030687;28;20114;-77
2023/04/18 09:18:01;;;;;;;13.63;10.10;;;10.90;99.90;;;;;;5012800;28;20438;-77
2023/04/18 09:20:33;;;;;;;13.68;9.88;;;10.90;99.90;;;;;;5016587;28;20107;-77
2023/04/18 09:22:59;;;;;;;12.55;9.35;;;10.90;99.90;;;;;;5033528;28;20517;-77
2023/04/18 09:25:45;;;;;;;15.20;10.82;;;10.80;99.90;;;;;;5016568;28;20464;-77
2023/04/18 09:28:25;;;;;;;17.17;11.23;;;10.90;99.90;;;;;;5013097;28;20033;-77
2023/04/18 09:30:51;;;;;;;20.67;9.63;;;10.90;99.90;;;;;;4999840;28;20041;-77
2023/04/18 09:33:17;;;;;;;16.75;11.05;;;10.90;99.90;;;;;;4989599;28;20490;-77
2023/04/18 09:35:43;;;;;;;18.45;11.45;;;10.80;99.90;;;;;;5028645;28;20055;-77
2023/04/18 09:38:09;;;;;;;16.75;10.95;;;10.80;99.90;;;;;;5022246;28;20026;-77
2023/04/18 09:40:34;;;;;;;17.45;12.02;;;10.90;99.90;;;;;;5011055;28;20058;-77
2023/04/18 09:43:00;;;;;;;19.15;11.68;;;10.80;99.90;;;;;;4998620;28;20026;-76
2023/04/18 09:45:26;;;;;;;16.63;11.18;;;10.80;99.90;;;;;;4999854;28;20941;-77
2023/04/18 09:47:52;;;;;;;17.33;10.70;;;10.80;99.90;;;;;;5005485;28;20513;-77
2023/04/18 09:50:19;;;;;;;17.23;10.80;;;10.90;99.90;;;;;;5012698;28;20421;-77
2023/04/18 09:52:45;;;;;;;14.07;10.35;;;10.90;99.90;;;;;;5014804;28;20088;-77
2023/04/18 09:55:14;;;;;;;18.75;10.73;;;10.90;99.90;;;;;;5014471;28;20513;-76
2023/04/18 09:57:40;;;;;;;17.25;11.65;;;11.00;99.90;;;;;;5011907;28;20541;-76
2023/04/18 10:00:23;;;;;;;17.40;10.63;;;11.00;99.90;;;;;;5000099;28;20036;-77
2023/04/18 10:02:49;;;;;;;16.63;11.20;;;11.10;99.90;;;;;;5003264;28;20072;-77
2023/04/18 10:05:15;;;;;;;18.55;13.00;;;11.20;99.90;;;;;;5000028;28;20030;-76
2023/04/18 10:07:46;;;;;;;18.63;12.18;;;11.40;99.90;;;;;;5029398;28;20029;-76
2023/04/18 10:10:11;;;;;;;17.85;12.02;;;11.50;99.90;;;;;;5012967;28;20029;-76
2023/04/18 10:12:37;;;;;;;17.33;10.85;;;11.60;99.90;;;;;;5001557;28;20521;-76
2023/04/18 10:15:05;;;;;;;16.70;11.98;;;11.70;99.90;;;;;;5018829;28;20073;-76
2023/04/18 10:17:42;;;;;;;16.23;10.38;;;11.80;99.90;;;;;;5028507;28;20038;-76
2023/04/18 10:20:11;;;;;;;16.10;10.70;;;11.90;99.90;;;;;;5020439;28;20712;-76
2023/04/18 10:22:37;;;;;;;18.70;10.07;;;12.10;99.90;;;;;;5011506;28;20034;-76
2023/04/18 10:25:03;;;;;;;21.83;11.95;;;12.10;99.90;;;;;;5015277;28;20108;-76
2023/04/18 10:27:47;;;;;;;18.38;12.05;;;12.10;99.90;;;;;;4999251;28;20150;-76
2023/04/18 10:30:13;;;;;;;18.33;11.48;;;12.30;99.90;;;;;;5013623;28;20140;-76
2023/04/18 10:32:39;;;;;;;14.10;10.63;;;12.50;99.90;;;;;;5013706;28;20083;-76
2023/04/18 10:35:05;;;;;;;15.13;11.45;;;12.30;99.90;;;;;;4998170;28;20495;-77
2023/04/18 10:37:32;;;;;;;16.33;11.43;;;12.50;99.90;;;;;;5016885;28;20045;-76
2023/04/18 10:39:59;;;;;;;16.88;12.55;;;12.80;99.90;;;;;;5012477;28;20167;-76
2023/04/18 10:42:46;;;;;;;15.60;10.77;;;13.00;99.90;;;;;;5016116;28;20104;-77
2023/04/18 10:45:25;;;;;;;19.63;12.82;;;13.10;99.90;;;;;;5012679;28;20083;-77
2023/04/18 10:48:31;;;;;;;16.90;11.63;;;13.30;99.90;;;;;;5000580;28;20673;-77
2023/04/18 10:51:17;;;;;;;18.42;13.45;;;13.30;99.90;;;;;;4999963;28;20113;-77
2023/04/18 10:53:49;;;;;;;18.17;12.60;;;13.40;99.90;;;;;;5003667;28;20056;-78
2023/04/18 10:56:15;;;;;;;15.40;11.18;;;13.40;99.90;;;;;;4999370;28;20040;-77
2023/04/18 10:58:42;;;;;;;17.23;10.65;;;13.30;99.90;;;;;;5020020;28;20080;-78
2023/04/18 11:01:09;;;;;;;18.27;12.75;;;13.50;99.90;;;;;;5025489;28;20637;-78
2023/04/18 11:03:34;;;;;;;17.70;11.70;;;13.70;99.90;;;;;;5012911;28;20110;-77
2023/04/18 11:06:01;;;;;;;16.80;10.60;;;13.80;99.90;;;;;;5001990;28;20065;-78
2023/04/18 11:08:27;;;;;;;16.10;11.38;;;14.00;99.90;;;;;;5033361;28;20087;-78
2023/04/18 11:10:59;;;;;;;17.77;12.05;;;14.30;99.90;;;;;;5017114;28;20050;-78
2023/04/18 11:13:24;;;;;;;17.65;11.82;;;14.50;99.90;;;;;;5022611;28;20045;-78
2023/04/18 11:15:50;;;;;;;14.93;10.70;;;14.50;99.90;;;;;;5021889;28;20548;-78
2023/04/18 11:18:15;;;;;;;17.85;10.52;;;14.70;99.90;;;;;;5007172;28;20087;-78
2023/04/18 11:20:48;;;;;;;14.02;11.27;;;14.80;99.90;;;;;;5032424;28;20052;-78
2023/04/18 11:23:21;;;;;;;17.30;12.05;;;14.90;99.90;;;;;;4988704;28;20497;-77
2023/04/18 11:25:49;;;;;;;17.58;12.30;;;15.10;99.90;;;;;;5013613;28;20077;-77
2023/04/18 11:28:17;;;;;;;17.52;11.95;;;15.30;99.90;;;;;;5020338;28;20033;-78
2023/04/18 11:30:43;;;;;;;17.60;12.23;;;15.50;99.90;;;;;;5014708;28;20034;-78
2023/04/18 11:33:10;;;;;;;16.60;11.90;;;15.70;99.90;;;;;;5036017;28;20052;-78
2023/04/18 11:35:39;;;;;;;19.02;12.73;;;15.80;99.90;;;;;;5012493;28;20029;-78
2023/04/18 11:38:05;;;;;;;18.02;12.75;;;15.80;99.90;;;;;;5014519;28;20034;-78
2023/04/18 11:40:31;;;;;;;15.25;10.60;;;16.20;99.90;;;;;;5015915;28;20042;-78
2023/04/18 11:43:00;;;;;;;14.95;10.77;;;16.20;99.90;;;;;;5018548;28;20036;-78
2023/04/18 11:45:26;;;;;;;17.33;12.98;;;16.00;99.90;;;;;;4998880;28;20029;-77
2023/04/18 11:47:55;;;;;;;16.50;11.68;;;16.00;99.90;;;;;;5021041;28;20048;-77
2023/04/18 11:50:20;;;;;;;18.13;13.10;;;16.20;99.90;;;;;;5014039;28;20036;-78
2023/04/18 11:52:49;;;;;;;17.55;11.98;;;16.20;99.90;;;;;;5000225;28;20069;-78
2023/04/18 11:55:20;;;;;;;20.23;13.13;;;16.30;99.90;;;;;;5017338;28;20032;-79
2023/04/18 11:58:01;;;;;;;19.58;13.48;;;16.40;99.90;;;;;;5020205;28;20030;-79
2023/04/18 12:00:37;;;;;;;19.80;12.57;;;16.60;99.90;;;;;;5002146;28;20029;-79
2023/04/18 12:03:04;;;;;;;19.50;13.15;;;16.70;99.90;;;;;;5022100;28;20080;-79
2023/04/18 12:05:33;;;;;;;22.58;15.38;;;16.90;99.90;;;;;;5019022;28;20564;-79
2023/04/18 12:08:13;;;;;;;20.58;14.52;;;17.00;99.90;;;;;;5033111;28;20026;-79
2023/04/18 12:10:49;;;;;;;19.65;13.20;;;17.20;99.90;;;;;;4984862;28;20096;-78
2023/04/18 12:13:15;;;;;;;19.95;12.20;;;17.00;99.90;;;;;;5020757;28;20445;-78
2023/04/18 12:15:43;;;;;;;19.25;12.55;;;17.00;99.90;;;;;;5000485;28;20547;-79
2023/04/18 12:18:10;;;;;;;17.50;13.57;;;16.80;99.90;;;;;;5004908;28;20128;-79
2023/04/18 12:20:48;;;;;;;18.35;12.60;;;16.70;99.90;;;;;;5002459;28;20030;-78
2023/04/18 12:23:39;;;;;;;18.08;13.23;;;16.60;99.90;;;;;;5015934;28;20640;-78
2023/04/18 12:26:11;;;;;;;17.38;14.02;;;16.50;99.90;;;;;;5017686;28;20121;-78
2023/04/18 12:28:37;;;;;;;26.45;13.15;;;16.50;99.90;;;;;;5009501;28;20030;-78
2023/04/18 12:31:06;;;;;;;17.25;12.25;;;16.60;99.90;;;;;;5018555;28;20041;-78
2023/04/18 12:33:32;;;;;;;16.23;12.88;;;16.60;99.90;;;;;;4989915;28;20041;-78
2023/04/18 12:35:57;;;;;;;15.68;11.63;;;16.40;99.90;;;;;;5008095;28;20509;-78